Reggiomediterranea

Scheda squadra Reggiomediterranea, campionato di Eccellenza Girone A Calabria. Notizie in tempo reale, calendario risultati e classifiche.

Reggiomed, le prodezze di super Giorgio

Nel primato in classifica della Reggiomediterranea, ci sono senza ombra di dubbio anche le prodezze tra i pali del proprio estremo difensore Giorgio Morabito. L'ex Casarano, alla sua seconda stagione da titolare tra i...

Stop inatteso per la Gioiese

Brusco risveglio alla realtà per la Gioiese che, dopo l’impresa di domenica sul campo della Promosport, cede a sorpresa sul neutro di Cittanova, al cospetto di una cinica Reggiomediterranea, formazione solida e dimostratasi molto...

Un goal per tempo e la Reggiomed vince contro la Gioiese [FOTO]

Sul sintetico del Morreale Proto di Cittanova, la Reggiomed batte la Gioiese grazie alle reti di Salvador e Franzò. Inizio gara fase di studio per le due squadre. Al minuto 17 prima conclusione degna di...

Debutto casalingo per la Gioiese contro la Reggiomediterranea

Gran colpo della Gioiese che, in chiusura di mercato, ha ingaggiato il forte attaccante Angelo Catania, classe 1993, proveniente dalla formazione toscana del Tuttocuoio (dove militava lo scorso anno Lazzarini). Catania lo scorso anno ha...

Reggiomed, ecco Checa e Limardo

Il mercato della Reggiomediterranea parla sempre più argentino, con gli arrivi del centrocampista Valentino Limardo e l'attaccante Martiniano Checa, entrambi classe 2004. In questa sessione estiva di mercato, la società reggina continua a prediligere la...

Reggiomed, arriva un altro argentino

Alla Reggiomediterranea si continua a danzare a ritmo di tango argentino. A rafforzare già la folta colonna di giocatori argentini presenti all'interno della rosa dei reggini, ci ha pensato l'arrivo del giovane esterno Nahuel...

Reggiomed, riecco Mazieres

La Reggiomediterranea riabbraccia l'attaccante argentino, Matias Mazieres (2003), il quale per un breve periodo durante la scorsa stagione aveva indossato la maglia amaranto, totalizzando due presenze condite da una sola rete. Matias, è reduce...

Reggiomed, ecco Fabrizio Diaz

In casa Reggiomediterranea si continua a parlare argentino, con l'arrivo dell'esterno Fabrizio Diaz (2000). Il terzo innesto di questa sessione estiva di mercato, che va ad aggiungersi a quelli del difensore Max Barnofsky e...

Reggiomed, ecco i primi colpi

Anche la Reggiomediterranea si muove sul mercato, ufficializzando i primi colpi in entrata. La società del presidente Leo, nel giro di pochi giorni, ha presentato l'esperto centrale difensivo tedesco Max Barnofsky (1995) e il...

ReggioMed, non c’è sconfitta nel cuore di chi lotta

Svanisce il sogno Serie D per la Reggiomediterranea di mister Misiti, sconfitta nella semifinale di ritorno della fase nazionale playoff da parte del San Marzano. In una torrida domenica pomeriggio di inizio giugno, al...

Reggiomed, crederci tutti insieme

In casa Reggiomediterranea, c’è grande entusiasmo dopo il pareggio maturato in extremis sul campo della corazzata San Marzano. La fase nazionale dei play off di Eccellenza, non poteva iniziare nel migliore dei modi per...

San Marzano – Reggiomed 1-1, Lancioni fa esultare i reggini

Nella semifinale d'andata della fase nazionale dei play off di Eccellenza, la Reggiomediterranea torna a casa con un buon pareggio. Gli amaranto sul campo di Angri contro la corazzata San Marzano, evitano la sconfitta...
DataCasaRisultatiTrasfertaOra
2022-10-02 14:30:0002/10/22- 14:30:0014:30
2022-09-24 14:30:0024/09/220 - 1 14:30:0014:30
2022-09-18 14:30:0018/09/220 - 2 14:30:0014:30
2022-09-11 14:30:0011/09/223 - 0 14:30:0014:30
2022-05-01 14:30:0001/05/221 - 1 14:30:0014:30
2022-04-24 14:30:0024/04/220 - 5 14:30:0014:30
2022-04-10 14:30:0010/04/223 - 0 14:30:0014:30
2022-04-03 14:30:0003/04/223 - 1 14:30:0014:30
2022-03-27 14:30:0027/03/222 - 1 14:30:0014:30
2022-03-20 14:30:0020/03/223 - 1 14:30:0014:30
2022-03-13 14:30:0013/03/221 - 2 14:30:0014:30
2022-03-06 14:30:0006/03/223 - 2 14:30:0014:30
2022-03-02 14:30:0002/03/223 - 1 14:30:0014:30
2022-02-27 14:30:0027/02/220 - 2 14:30:0014:30
2022-02-20 14:30:0020/02/223 - 0 14:30:0014:30
2022-02-13 14:30:0013/02/223 - 2 14:30:0014:30
2022-02-06 14:30:0006/02/222 - 0 14:30:0014:30
2022-01-30 14:30:0030/01/220 - 0 14:30:0014:30
2022-01-23 14:30:0023/01/220 - 1 14:30:0014:30
2022-01-05 14:30:0005/01/222 - 4 14:30:0014:30
2021-12-19 14:30:0019/12/213 - 0 14:30:0014:30
2021-12-12 14:30:0012/12/214 - 1 14:30:0014:30
2021-12-05 14:30:0005/12/213 - 0 14:30:0014:30
2021-11-28 14:30:0028/11/211 - 0 14:30:0014:30
2021-11-21 14:30:0021/11/213 - 3 14:30:0014:30
2021-11-14 14:30:0014/11/210 - 5 14:30:0014:30
2021-11-07 14:30:0007/11/210 - 5 14:30:0014:30
2021-10-31 14:30:0031/10/211 - 0 14:30:0014:30
2021-10-24 14:30:0024/10/211 - 0 14:30:0014:30
2021-10-17 14:30:0017/10/210 - 0 14:30:0014:30
2021-10-10 14:30:0010/10/211 - 2 14:30:0014:30
2021-10-03 14:30:0003/10/214 - 2 14:30:0014:30
2021-09-26 15:30:0026/09/210 - 5 15:30:0015:30
2021-09-19 15:30:0019/09/213 - 1 15:30:0015:30
2021-05-23 15:30:0023/05/211 - 2 15:30:0015:30
2021-05-16 15:30:0016/05/210 - 0 15:30:0015:30
2021-05-09 15:30:0009/05/210 - 1 15:30:0015:30
2021-05-02 15:30:0002/05/211 - 0 15:30:0015:30
2021-04-25 15:30:0025/04/211 - 1 15:30:0015:30
2021-04-18 15:30:0018/04/211 - 0 15:30:0015:30
2021-04-11 15:30:0011/04/211 - 4 15:30:0015:30
2021-02-21 15:00:0021/02/21- 15:00:0015:00
2021-02-14 15:00:0014/02/21- 15:00:0015:00
2021-02-07 15:00:0007/02/21- 15:00:0015:00
2021-01-31 15:00:0031/01/21- 15:00:0015:00
2021-01-24 15:00:0024/01/21- 15:00:0015:00
2021-01-17 15:00:0017/01/21- 15:00:0015:00
2021-01-10 15:00:0010/01/21- 15:00:0015:00
2021-01-06 15:00:0006/01/21- 15:00:0015:00
2020-12-20 15:00:0020/12/20- 15:00:0015:00
2020-12-13 15:00:0013/12/20- 15:00:0015:00
2020-12-06 15:00:0006/12/20- 15:00:0015:00
2020-11-29 15:00:0029/11/20- 15:00:0015:00
2020-11-25 15:00:0025/11/20- 15:00:0015:00
2020-11-22 15:00:0022/11/20- 15:00:0015:00
2020-11-15 15:00:0015/11/20- 15:00:0015:00
2020-11-01 15:00:0001/11/20- 15:00:0015:00
2020-10-25 15:00:0025/10/205 - 1 15:00:0015:00
2020-10-21 15:00:0021/10/202 - 2 15:00:0015:00
2020-10-18 15:00:0018/10/20- 15:00:0015:00
2020-10-11 15:00:0011/10/201 - 1 15:00:0015:00
2020-10-04 15:00:0004/10/202 - 1 15:00:0015:00
2020-09-27 15:00:0027/09/200 - 1 15:00:0015:00
2020-04-19 15:30:0019/04/20- 15:30:0015:30
2020-04-05 15:30:0005/04/20- 15:30:0015:30
2020-03-29 15:30:0029/03/20- 15:30:0015:30
2020-03-22 14:30:0022/03/20- 14:30:0014:30
2020-03-15 14:30:0015/03/20- 14:30:0014:30
2020-03-08 14:30:0008/03/20- 14:30:0014:30
2020-03-01 14:30:0001/03/202 - 2 14:30:0014:30
2020-02-23 14:30:0023/02/201 - 0 14:30:0014:30
2020-02-16 14:30:0016/02/200 - 2 14:30:0014:30
2020-02-09 14:30:0009/02/204 - 1 14:30:0014:30
2020-02-02 14:30:0002/02/201 - 0 14:30:0014:30
2020-01-26 14:30:0026/01/200 - 0 14:30:0014:30
2020-01-19 14:30:0019/01/201 - 2 14:30:0014:30
2020-01-12 14:30:5712/01/203 - 0 14:30:5714:30
2020-01-05 14:30:0005/01/200 - 2 14:30:0014:30
2019-12-15 14:30:0015/12/190 - 3 14:30:0014:30
2019-12-08 14:30:0008/12/191 - 2 14:30:0014:30
2019-12-01 14:30:0001/12/192 - 2 14:30:0014:30
2019-11-24 14:30:0024/11/190 - 2 14:30:0014:30
2019-11-17 14:30:0017/11/192 - 1 14:30:0014:30
2019-11-10 14:30:0010/11/192 - 0 14:30:0014:30
2019-11-03 14:30:0003/11/193 - 0 14:30:0014:30
2019-10-27 14:30:0027/10/190 - 1 14:30:0014:30
2019-10-20 15:30:0020/10/191 - 1 15:30:0015:30
2019-10-13 15:30:0013/10/191 - 2 15:30:0015:30
2019-10-06 15:30:0006/10/191 - 0 15:30:0015:30
2019-09-28 15:30:0028/09/191 - 1 15:30:0015:30
2019-09-22 15:30:0022/09/190 - 0 15:30:0015:30
2019-09-15 15:30:0015/09/190 - 0 15:30:0015:30
2019-09-08 15:30:0008/09/193 - 1 15:30:0015:30
2019-04-28 16:00:0028/04/194 - 2 16:00:0016:00
2019-04-07 16:00:0007/04/194 - 2 16:00:0016:00
2019-03-31 15:00:0031/03/194 - 0 15:00:0015:00
2019-03-24 15:00:0024/03/191 - 3 15:00:0015:00
2019-03-17 15:00:0017/03/193 - 1 15:00:0015:00
2019-03-10 15:00:0010/03/191 - 1 15:00:0015:00
2019-03-03 15:00:0003/03/191 - 0 15:00:0015:00
2019-02-24 14:30:0024/02/192 - 1 14:30:0014:30
2019-02-17 14:30:0017/02/190 - 0 14:30:0014:30
2019-02-10 14:30:0010/02/192 - 3 14:30:0014:30
2019-02-03 14:30:0003/02/191 - 0 14:30:0014:30
2019-01-27 14:30:0027/01/190 - 2 14:30:0014:30
2019-01-20 14:30:0020/01/193 - 1 14:30:0014:30
2019-01-11 14:30:0011/01/190 - 1 14:30:0014:30
2019-01-06 14:30:0006/01/192 - 1 14:30:0014:30
2018-12-16 14:30:0016/12/183 - 1 14:30:0014:30
2018-12-09 14:30:0009/12/182 - 2 14:30:0014:30
2018-12-02 14:30:0002/12/181 - 2 14:30:0014:30
2018-11-25 14:30:0025/11/182 - 0 14:30:0014:30
2018-11-18 14:30:0018/11/180 - 1 14:30:0014:30
2018-11-11 14:30:0011/11/182 - 0 14:30:0014:30
2018-11-04 14:30:0004/11/180 - 0 14:30:0014:30
2018-10-28 14:30:0028/10/182 - 1 14:30:0014:30
2018-10-21 15:30:0021/10/181 - 0 15:30:0015:30
2018-10-14 15:30:0014/10/181 - 1 15:30:0015:30
2018-10-07 15:30:0007/10/181 - 2 15:30:0015:30
2018-09-30 15:30:0030/09/182 - 1 15:30:0015:30
2018-09-23 15:30:0023/09/181 - 2 15:30:0015:30
2018-09-16 15:30:0016/09/183 - 0 15:30:0015:30
2018-09-09 15:30:0009/09/180 - 4 15:30:0015:30
2018-04-29 16:00:0029/04/182 - 1 16:00:0016:00
2018-04-22 16:00:0022/04/180 - 1 16:00:0016:00
2018-04-22 16:00:0022/04/180 - 4 16:00:0016:00
2018-04-15 16:00:0015/04/181 - 0 16:00:0016:00
2018-04-08 16:00:0008/04/180 - 0 16:00:0016:00
2018-03-18 15:00:0018/03/185 - 0 15:00:0015:00
2018-03-11 15:00:0011/03/183 - 1 15:00:0015:00
2018-03-04 15:00:0004/03/182 - 2 15:00:0015:00
2018-02-25 14:30:0025/02/181 - 6 14:30:0014:30
2018-02-18 14:30:0018/02/183 - 0 14:30:0014:30
2018-02-11 14:30:0011/02/181 - 0 14:30:0014:30
2018-02-04 14:30:0004/02/181 - 4 14:30:0014:30
2018-01-28 14:30:0028/01/183 - 0 14:30:0014:30
2018-01-21 14:30:0021/01/182 - 1 14:30:0014:30
2018-01-14 14:30:0014/01/183 - 0 14:30:0014:30
2018-01-07 14:30:0007/01/180 - 0 14:30:0014:30
2017-12-17 14:30:0017/12/171 - 0 14:30:0014:30
2017-12-10 14:30:0010/12/172 - 2 14:30:0014:30
2017-12-03 14:30:0003/12/171 - 0 14:30:0014:30
2017-11-26 14:30:0026/11/171 - 0 14:30:0014:30
2017-11-19 14:30:0019/11/171 - 0 14:30:0014:30
2017-11-12 14:30:0012/11/171 - 0 14:30:0014:30
2017-11-05 14:30:0005/11/172 - 1 14:30:0014:30
2017-10-29 14:30:0029/10/170 - 0 14:30:0014:30
2017-10-22 15:30:0022/10/170 - 2 15:30:0015:30
2017-10-15 15:30:0015/10/171 - 1 15:30:0015:30
2017-10-08 15:30:0008/10/170 - 1 15:30:0015:30
2017-10-01 15:30:0001/10/170 - 1 15:30:0015:30
2017-09-24 15:30:0024/09/171 - 1 15:30:0015:30
2017-09-17 15:30:0017/09/170 - 1 15:30:0015:30
2017-09-10 15:30:0010/09/171 - 2 15:30:0015:30